Time;durP1;ratioP1;P1;durP2;ratioP2;P2;SDS_P1;SDS_P2;PMS_P1;PMS_P2;Temp;Humidity;BMP_temperature;BMP_pressure;BME280_temperature;BME280_humidity;BME280_pressure;Samples;Min_cycle;Max_cycle;Signal;HPM_P1;HPM_P2
2022/03/25 00:01:25;;;;;;;39.17;28.95;;;5.40;1.00;;;5.14;52.43;102345.00;4980621;28;20534;-78
2022/03/25 00:03:57;;;;;;;39.92;28.20;;;5.40;1.00;;;5.07;52.64;102346.53;4981575;28;20211;-79
2022/03/25 00:06:27;;;;;;;40.15;30.02;;;5.40;1.00;;;5.09;52.44;102344.56;4981792;28;20194;-76
2022/03/25 00:08:56;;;;;;;39.72;29.05;;;5.40;1.00;;;4.99;53.37;102349.00;4981600;28;20287;-78
2022/03/25 00:11:25;;;;;;;41.28;29.77;;;5.30;1.00;;;4.89;53.36;102345.44;4982456;28;20186;-78
2022/03/25 00:13:54;;;;;;;44.92;30.65;;;5.30;1.00;;;4.93;53.76;102344.19;4980914;28;20194;-78
2022/03/25 00:16:24;;;;;;;38.70;30.20;;;5.20;1.00;;;4.90;54.37;102341.75;4980509;28;20172;-79
2022/03/25 00:18:55;;;;;;;40.33;28.88;;;5.20;1.00;;;4.78;54.06;102338.28;4976910;28;20199;-78
2022/03/25 00:21:25;;;;;;;43.45;30.63;;;5.20;1.00;;;4.69;54.23;102342.59;4979097;28;20259;-78
2022/03/25 00:23:55;;;;;;;43.25;29.27;;;5.10;1.00;;;4.60;54.55;102332.63;4979240;28;20253;-77
2022/03/25 00:26:24;;;;;;;44.78;29.67;;;5.00;1.00;;;4.55;54.90;102328.66;4981639;28;20285;-76
2022/03/25 00:28:53;;;;;;;44.63;30.52;;;4.90;1.10;;;4.55;54.96;102329.47;4981352;28;20214;-77
2022/03/25 00:31:22;;;;;;;41.55;29.95;;;4.90;1.50;;;4.71;54.49;102332.56;4978916;28;20361;-77
2022/03/25 00:33:52;;;;;;;40.08;30.83;;;5.00;1.60;;;4.59;54.48;102324.72;4979632;28;20192;-79
2022/03/25 00:36:23;;;;;;;47.25;32.38;;;4.90;1.40;;;4.47;54.81;102321.22;4978856;28;20749;-76
2022/03/25 00:38:53;;;;;;;43.55;30.55;;;4.80;1.50;;;4.44;54.93;102317.97;4978919;28;20274;-79
2022/03/25 00:41:23;;;;;;;44.40;30.83;;;4.80;1.70;;;4.37;54.87;102314.94;4959750;28;20666;-78
2022/03/25 00:43:53;;;;;;;40.00;29.98;;;4.80;2.10;;;4.33;55.22;102316.16;4976796;28;20226;-78
2022/03/25 00:46:22;;;;;;;44.15;31.05;;;4.70;2.40;;;4.60;55.13;102319.22;4979239;28;20179;-79
2022/03/25 00:48:52;;;;;;;44.55;30.02;;;4.80;3.00;;;4.49;55.19;102316.59;4980619;28;20635;-76
2022/03/25 00:51:23;;;;;;;49.47;33.15;;;4.80;3.00;;;4.41;55.46;102316.38;4984109;28;20273;-78
2022/03/25 00:53:52;;;;;;;41.97;31.40;;;4.70;3.20;;;4.39;55.48;102312.97;4983797;28;20195;-78
2022/03/25 00:56:21;;;;;;;48.85;32.58;;;4.70;3.30;;;4.49;55.71;102308.56;4985425;28;20195;-79
2022/03/25 00:58:51;;;;;;;46.25;31.70;;;4.70;3.50;;;4.60;54.85;102321.88;4981243;28;20199;-79
2022/03/25 01:01:21;;;;;;;43.55;30.75;;;4.80;3.60;;;4.69;54.66;102315.78;4981052;28;20219;-77
2022/03/25 01:03:53;;;;;;;44.95;29.35;;;4.90;3.10;;;4.63;54.38;102316.28;4981761;28;20216;-79
2022/03/25 01:06:25;;;;;;;45.58;30.05;;;4.80;2.90;;;4.58;54.42;102317.66;4986702;28;20187;-76
2022/03/25 01:08:55;;;;;;;39.20;28.85;;;4.80;3.10;;;4.47;54.89;102315.00;4995294;28;20180;-76
2022/03/25 01:11:27;;;;;;;41.67;30.58;;;4.70;3.00;;;4.44;54.85;102315.28;4992192;28;20187;-76
2022/03/25 01:13:58;;;;;;;37.42;28.65;;;4.70;3.30;;;4.36;54.89;102314.06;4982110;28;20184;-79
2022/03/25 01:16:27;;;;;;;41.17;27.50;;;4.70;3.50;;;4.51;54.90;102311.94;4989876;28;20183;-76
2022/03/25 01:18:57;;;;;;;37.83;28.20;;;4.70;3.80;;;4.53;55.06;102310.00;4993282;28;20183;-76
2022/03/25 01:21:28;;;;;;;46.53;30.55;;;4.70;3.90;;;4.31;55.44;102307.38;4994690;28;20198;-76
2022/03/25 01:23:57;;;;;;;45.38;28.10;;;4.70;4.20;;;4.19;55.59;102301.22;4979465;28;20207;-76
2022/03/25 01:26:27;;;;;;;40.00;29.17;;;4.60;4.30;;;4.08;56.29;102295.03;4994827;28;20263;-76
2022/03/25 01:28:56;;;;;;;41.22;28.70;;;4.50;4.80;;;4.11;56.40;102294.81;4986907;28;20211;-78
2022/03/25 01:31:26;;;;;;;43.30;29.80;;;4.40;5.20;;;4.22;56.36;102305.47;4979734;28;20573;-79
2022/03/25 01:33:55;;;;;;;43.85;32.00;;;4.50;5.60;;;4.17;56.32;102299.66;4977532;28;20566;-77
2022/03/25 01:36:24;;;;;;;43.67;30.60;;;4.50;5.50;;;4.08;56.80;102289.69;4978725;28;20248;-79
2022/03/25 01:38:55;;;;;;;43.35;29.23;;;4.50;6.10;;;4.09;57.05;102294.06;4978094;28;20175;-78
2022/03/25 01:41:27;;;;;;;42.42;28.38;;;4.40;6.50;;;4.16;57.70;102306.00;4977428;28;20238;-79
2022/03/25 01:44:00;;;;;;;45.17;28.50;;;4.50;7.50;;;4.08;57.24;102300.41;4980522;28;20237;-79
2022/03/25 01:46:31;;;;;;;39.95;27.98;;;4.40;7.30;;;4.13;57.35;102303.56;4961220;28;20200;-77
2022/03/25 01:49:00;;;;;;;44.45;27.42;;;4.40;7.70;;;4.07;57.24;102310.25;4977568;28;20191;-78
2022/03/25 01:51:34;;;;;;;38.85;27.70;;;4.40;7.80;;;4.36;56.96;102307.84;4976426;28;20199;-78
2022/03/25 01:54:13;;;;;;;45.83;30.30;;;4.50;8.10;;;4.23;57.15;102312.53;4959749;28;20203;-79
2022/03/25 01:56:43;;;;;;;38.53;26.30;;;4.50;8.10;;;4.16;57.88;102314.03;4977360;28;20191;-79
2022/03/25 01:59:13;;;;;;;36.75;25.80;;;4.40;8.60;;;4.22;57.24;102316.19;4977483;28;20234;-76
2022/03/25 02:01:42;;;;;;;38.05;26.98;;;4.50;8.60;;;4.29;57.30;102310.22;4977034;28;20580;-78
2022/03/25 02:04:13;;;;;;;36.63;26.25;;;4.50;8.70;;;4.34;56.68;102315.19;4977525;28;20656;-76
2022/03/25 02:06:43;;;;;;;33.85;27.95;;;4.60;8.50;;;4.19;57.03;102303.06;4965247;28;20231;-77
2022/03/25 02:09:13;;;;;;;42.80;25.88;;;4.50;8.60;;;4.16;57.63;102300.66;4993091;28;20210;-75
2022/03/25 02:11:43;;;;;;;36.22;27.15;;;4.40;9.20;;;4.24;57.30;102304.38;4993502;28;20187;-75
2022/03/25 02:14:14;;;;;;;38.95;27.02;;;4.50;9.50;;;4.14;57.61;102298.09;4977090;28;20195;-77
2022/03/25 02:16:45;;;;;;;38.30;27.45;;;4.40;9.60;;;4.14;57.86;102299.91;4990077;28;20172;-80
2022/03/25 02:19:18;;;;;;;40.85;26.98;;;4.40;9.90;;;4.22;57.79;102294.75;4959493;28;20200;-78
2022/03/25 02:21:52;;;;;;;41.80;27.30;;;4.50;10.40;;;4.33;57.10;102298.25;4975799;28;20195;-79
2022/03/25 02:24:30;;;;;;;40.15;26.80;;;4.50;10.20;;;4.15;57.64;102298.94;4975497;28;20207;-80
2022/03/25 02:27:02;;;;;;;35.90;27.55;;;4.50;10.30;;;4.02;58.02;102293.72;4976825;28;20238;-78
2022/03/25 02:29:33;;;;;;;40.00;26.95;;;4.40;11.10;;;3.89;58.70;102299.22;4976669;28;20773;-78
2022/03/25 02:32:04;;;;;;;38.38;26.60;;;4.30;11.50;;;3.81;58.69;102300.84;4977692;28;20364;-76
2022/03/25 02:34:37;;;;;;;46.53;28.77;;;4.20;11.80;;;3.79;58.79;102302.78;4995199;28;20167;-75
2022/03/25 02:37:08;;;;;;;41.05;27.02;;;4.10;12.40;;;3.86;58.71;102295.97;4993732;28;20207;-78
2022/03/25 02:39:37;;;;;;;44.20;28.83;;;4.20;12.60;;;3.84;58.80;102296.06;4989966;28;20576;-76
2022/03/25 02:42:08;;;;;;;40.97;26.48;;;4.20;12.80;;;3.82;59.00;102292.69;4989906;28;20274;-75
2022/03/25 02:44:37;;;;;;;38.28;26.58;;;4.20;13.20;;;4.00;58.72;102300.19;4988901;28;20215;-75
2022/03/25 02:47:07;;;;;;;33.90;25.38;;;4.20;13.40;;;4.04;58.52;102304.31;4967894;28;20237;-79
2022/03/25 02:49:36;;;;;;;31.98;25.45;;;4.30;13.30;;;3.88;58.83;102296.66;4979215;28;20275;-79
2022/03/25 02:52:08;;;;;;;44.50;27.35;;;4.20;13.50;;;3.86;59.38;102304.84;4978103;28;20202;-79
2022/03/25 02:54:37;;;;;;;44.15;30.63;;;4.20;14.60;;;4.17;59.23;102294.28;4981221;28;20746;-78
2022/03/25 02:57:06;;;;;;;39.97;28.85;;;4.30;15.30;;;4.21;58.56;102299.25;4984390;28;20203;-76
2022/03/25 02:59:35;;;;;;;40.70;28.50;;;4.50;15.00;;;4.13;58.71;102298.19;4990742;28;20235;-77
2022/03/25 03:02:05;;;;;;;36.40;27.10;;;4.40;14.80;;;3.98;59.27;102296.78;4987082;28;20192;-76
2022/03/25 03:04:35;;;;;;;51.10;30.33;;;4.30;15.00;;;3.85;59.39;102297.78;4986325;28;20203;-77
2022/03/25 03:07:04;;;;;;;38.22;27.23;;;4.20;15.70;;;3.87;59.14;102295.81;4967162;28;20263;-77
2022/03/25 03:09:35;;;;;;;37.60;25.45;;;4.20;15.60;;;3.97;58.75;102297.78;4984187;28;20207;-79
2022/03/25 03:12:05;;;;;;;39.67;27.88;;;4.20;15.20;;;3.88;59.27;102302.88;4981616;28;20184;-78
2022/03/25 03:14:34;;;;;;;34.90;27.02;;;4.20;15.70;;;3.87;59.17;102301.19;4985229;28;20214;-77
2022/03/25 03:17:04;;;;;;;38.42;27.42;;;4.20;15.90;;;3.79;59.38;102300.97;4990753;28;20194;-76
2022/03/25 03:19:34;;;;;;;44.65;28.70;;;4.10;16.50;;;3.74;59.79;102304.97;4992265;28;20231;-77
2022/03/25 03:22:03;;;;;;;50.03;31.75;;;4.10;17.10;;;3.83;59.92;102314.94;4991765;28;20196;-75
2022/03/25 03:24:34;;;;;;;42.75;27.35;;;4.10;17.70;;;3.92;59.75;102309.69;4993257;28;20215;-76
2022/03/25 03:27:05;;;;;;;41.58;30.05;;;4.10;18.20;;;4.02;59.43;102306.28;4992975;28;20203;-78
2022/03/25 03:29:34;;;;;;;41.15;27.52;;;4.20;18.20;;;4.00;59.24;102306.41;4966162;28;20262;-79
2022/03/25 03:32:03;;;;;;;31.17;25.50;;;4.20;17.90;;;3.98;59.43;102302.13;4963867;28;20283;-77
2022/03/25 03:34:33;;;;;;;39.63;27.52;;;4.20;18.10;;;3.85;59.67;102305.81;4980837;28;20176;-78
2022/03/25 03:37:02;;;;;;;43.65;28.70;;;4.20;18.30;;;4.02;59.18;102306.28;4981168;28;20738;-80
2022/03/25 03:39:31;;;;;;;41.60;26.88;;;4.30;18.00;;;3.86;59.34;102315.56;4983463;28;20211;-80
2022/03/25 03:42:03;;;;;;;36.50;25.92;;;4.20;17.80;;;3.66;60.30;102313.63;4983121;28;20540;-79
2022/03/25 03:44:32;;;;;;;45.20;27.33;;;4.00;18.90;;;3.63;60.39;102318.41;4982003;28;20690;-79
2022/03/25 03:47:01;;;;;;;38.20;27.88;;;4.00;20.00;;;3.77;60.43;102316.31;4981064;28;20199;-79
2022/03/25 03:49:30;;;;;;;36.17;26.50;;;4.00;21.00;;;3.76;60.48;102319.09;4980284;28;20506;-81
2022/03/25 03:52:00;;;;;;;42.78;28.90;;;4.00;21.20;;;3.75;60.13;102320.06;4980233;28;20535;-77
2022/03/25 03:54:29;;;;;;;38.10;26.35;;;4.00;21.10;;;3.81;59.98;102317.75;4980754;28;20239;-77
2022/03/25 03:57:18;;;;;;;38.85;27.20;;;4.10;21.10;;;3.77;59.90;102319.00;4982044;28;20231;-79
2022/03/25 03:59:47;;;;;;;40.53;28.35;;;4.10;20.70;;;3.82;59.94;102314.13;4980963;28;20742;-79
2022/03/25 04:02:16;;;;;;;32.75;25.80;;;4.10;21.50;;;3.79;59.97;102318.84;4981921;28;20175;-76
2022/03/25 04:04:45;;;;;;;40.40;26.80;;;4.10;21.10;;;3.73;60.12;102319.34;4981084;28;20206;-79
2022/03/25 04:07:15;;;;;;;49.03;26.98;;;4.10;21.20;;;3.81;59.76;102317.75;4981879;28;20203;-78
2022/03/25 04:09:44;;;;;;;40.45;26.58;;;4.10;21.20;;;3.87;59.88;102316.41;4981449;28;20266;-78
2022/03/25 04:12:13;;;;;;;38.88;26.10;;;4.10;21.00;;;3.97;59.37;102319.19;4982229;28;20176;-80
2022/03/25 04:14:44;;;;;;;36.78;27.83;;;4.20;20.60;;;3.84;59.63;102325.53;4982333;28;20195;-79
2022/03/25 04:17:13;;;;;;;34.35;26.17;;;4.20;20.40;;;3.67;60.14;102320.69;4981782;28;20180;-78
2022/03/25 04:19:42;;;;;;;36.80;26.75;;;4.10;20.70;;;3.73;59.80;102322.88;4985911;28;20243;-78
2022/03/25 04:22:11;;;;;;;38.70;26.05;;;4.00;21.00;;;3.64;60.05;102315.56;4990957;28;20184;-78
2022/03/25 04:24:40;;;;;;;35.90;26.13;;;4.00;21.50;;;3.54;60.34;102319.97;4990588;28;20626;-76
2022/03/25 04:27:09;;;;;;;38.03;25.27;;;3.90;21.90;;;3.71;60.35;102327.50;4984998;28;20199;-78
2022/03/25 04:29:38;;;;;;;33.53;23.90;;;3.90;22.30;;;3.89;59.61;102320.66;4979807;28;20222;-77
2022/03/25 04:32:09;;;;;;;43.88;27.52;;;4.10;22.00;;;3.78;60.08;102327.84;4978569;28;20180;-79
2022/03/25 04:34:38;;;;;;;38.13;25.08;;;4.10;22.10;;;3.69;60.12;102324.09;4979430;28;20635;-78
2022/03/25 04:37:07;;;;;;;35.22;25.45;;;4.00;22.30;;;3.54;60.92;102319.97;4978411;28;20192;-79
2022/03/25 04:39:37;;;;;;;40.15;25.65;;;3.90;23.20;;;3.51;61.07;102322.88;4980798;28;20215;-79
2022/03/25 04:42:07;;;;;;;36.17;23.10;;;3.80;23.80;;;3.44;61.30;102324.34;4981655;28;20179;-78
2022/03/25 04:44:36;;;;;;;35.30;25.65;;;3.80;25.00;;;3.38;61.88;102330.19;4980747;28;20678;-78
2022/03/25 04:47:05;;;;;;;43.30;27.27;;;3.70;25.90;;;3.26;62.35;102332.00;4982967;28;20195;-79
2022/03/25 04:49:36;;;;;;;36.45;25.80;;;3.60;27.90;;;3.22;63.30;102335.03;4983178;28;20478;-77
2022/03/25 04:52:05;;;;;;;40.35;25.70;;;3.60;31.00;;;3.43;62.78;102333.34;4984995;28;20176;-76
2022/03/25 04:54:34;;;;;;;39.60;26.70;;;3.70;34.40;;;3.73;62.00;102338.94;4987607;28;20190;-75
2022/03/25 04:57:04;;;;;;;36.72;26.13;;;3.80;34.50;;;3.74;61.66;102337.97;4986626;28;20192;-77
2022/03/25 04:59:33;;;;;;;41.38;26.10;;;3.90;33.40;;;3.72;61.93;102342.59;4985007;28;20215;-76
2022/03/25 05:02:03;;;;;;;37.58;26.85;;;3.90;33.20;;;3.81;61.61;102343.69;4986156;28;20175;-78
2022/03/25 05:04:32;;;;;;;39.42;27.10;;;4.00;32.90;;;3.71;61.97;102340.91;4984190;28;20198;-77
2022/03/25 05:07:03;;;;;;;37.28;24.90;;;4.00;32.50;;;3.58;62.71;102345.53;4986759;28;20179;-78
2022/03/25 05:09:33;;;;;;;31.45;25.23;;;3.90;35.20;;;3.66;62.65;102343.09;4983552;28;20231;-80
2022/03/25 05:12:02;;;;;;;34.63;24.15;;;3.80;38.00;;;3.70;62.29;102343.69;4983714;28;20195;-77
2022/03/25 05:14:31;;;;;;;37.22;25.90;;;3.90;38.20;;;3.63;62.44;102353.19;4985307;28;20268;-79
2022/03/25 05:17:00;;;;;;;34.80;25.00;;;3.80;38.30;;;3.64;62.56;102344.16;4984526;28;20176;-79
2022/03/25 05:19:30;;;;;;;40.95;26.13;;;3.80;40.10;;;3.57;62.53;102343.81;4982241;28;20234;-78
2022/03/25 05:21:59;;;;;;;30.08;24.50;;;3.80;39.80;;;3.67;62.79;102344.78;4963090;28;20608;-76
2022/03/25 05:24:29;;;;;;;40.33;27.75;;;3.80;41.60;;;3.77;61.98;102343.09;4980398;28;20635;-75
2022/03/25 05:26:59;;;;;;;48.72;25.42;;;3.90;41.20;;;3.72;62.29;102345.28;4988426;28;20187;-77
2022/03/25 05:29:28;;;;;;;38.42;26.45;;;3.90;40.20;;;4.11;62.29;102345.72;4992017;28;20219;-78
2022/03/25 05:31:57;;;;;;;40.15;27.55;;;4.10;43.00;;;4.10;61.61;102344.00;4981742;28;20555;-80
2022/03/25 05:34:26;;;;;;;35.45;25.08;;;4.10;40.10;;;4.08;61.29;102349.47;4988840;28;20588;-77
2022/03/25 05:36:55;;;;;;;38.13;26.38;;;4.20;38.60;;;4.24;61.62;102349.09;4993970;28;20252;-77
2022/03/25 05:39:25;;;;;;;44.25;27.40;;;4.30;38.70;;;4.24;61.29;102346.41;4975405;28;20661;-78
2022/03/25 05:41:56;;;;;;;41.38;27.42;;;4.30;37.70;;;4.42;60.75;102355.59;4993415;28;20187;-77
2022/03/25 05:44:25;;;;;;;43.33;26.30;;;4.50;37.20;;;4.51;61.02;102353.97;4988795;28;20184;-77
2022/03/25 05:46:55;;;;;;;44.40;27.65;;;4.50;36.00;;;4.60;60.40;102358.59;4987384;28;20223;-78
2022/03/25 05:49:23;;;;;;;45.85;29.13;;;4.60;35.80;;;4.80;59.65;102360.44;4987167;28;20221;-76
2022/03/25 05:51:52;;;;;;;46.15;25.80;;;4.70;33.40;;;4.92;59.37;102362.09;4985046;28;20187;-79
2022/03/25 05:54:21;;;;;;;47.22;28.38;;;4.90;31.00;;;4.99;58.53;102365.94;4979901;28;20179;-78
2022/03/25 05:56:50;;;;;;;43.85;27.50;;;5.00;28.90;;;5.08;58.09;102359.81;4980771;28;20168;-77
2022/03/25 05:59:22;;;;;;;42.88;28.63;;;5.10;27.50;;;5.13;58.27;102362.94;4988669;28;20215;-76
2022/03/25 06:01:51;;;;;;;40.03;26.65;;;5.00;27.00;;;5.20;58.67;102352.53;4984664;28;20226;-81
2022/03/25 06:04:20;;;;;;;46.53;28.35;;;5.10;27.80;;;5.32;58.64;102354.19;4983778;28;20566;-81
2022/03/25 06:06:49;;;;;;;38.97;29.60;;;5.20;27.50;;;5.48;57.95;102361.75;4982220;28;20211;-79
2022/03/25 06:09:18;;;;;;;45.17;29.98;;;5.30;26.40;;;5.68;56.86;102364.38;4984453;28;20203;-80
2022/03/25 06:11:47;;;;;;;51.10;29.00;;;5.50;24.80;;;5.76;56.19;102366.38;4980493;28;20196;-77
2022/03/25 06:14:16;;;;;;;46.58;29.25;;;5.60;23.20;;;5.98;56.16;102355.50;4983447;28;20269;-79
2022/03/25 06:16:47;;;;;;;44.83;27.48;;;5.80;22.30;;;6.08;56.03;102350.16;4981891;28;20203;-79
2022/03/25 06:19:17;;;;;;;46.30;29.40;;;6.00;21.70;;;6.08;55.98;102359.06;4984669;28;20176;-77
2022/03/25 06:21:46;;;;;;;44.63;28.88;;;5.90;21.80;;;6.35;54.53;102363.78;4985848;28;20190;-76
2022/03/25 06:24:16;;;;;;;44.28;29.10;;;6.10;20.00;;;6.42;54.37;102364.06;4984309;28;20171;-77
2022/03/25 06:26:45;;;;;;;38.88;26.90;;;6.20;18.60;;;6.45;54.19;102364.63;4984450;28;20271;-77
2022/03/25 06:29:14;;;;;;;40.70;26.52;;;6.30;18.10;;;6.64;53.65;102363.78;4983085;28;20195;-77
2022/03/25 06:31:43;;;;;;;52.92;31.15;;;6.50;17.70;;;6.73;52.84;102372.88;4986134;28;20187;-77
2022/03/25 06:34:20;;;;;;;44.03;28.05;;;6.60;15.70;;;6.67;53.36;102371.59;4984470;28;20253;-79
2022/03/25 06:36:50;;;;;;;37.92;25.55;;;6.60;15.40;;;6.69;52.75;102371.44;4986454;28;20194;-78
2022/03/25 06:39:19;;;;;;;41.53;28.67;;;6.70;14.50;;;6.66;52.68;102372.59;4997124;28;20203;-76
2022/03/25 06:41:48;;;;;;;44.83;29.88;;;6.70;13.70;;;6.70;52.60;102370.47;4996414;28;20171;-74
2022/03/25 06:44:17;;;;;;;41.72;28.63;;;6.80;13.70;;;6.86;52.30;102373.44;4981867;28;20214;-77
2022/03/25 06:46:46;;;;;;;48.50;28.08;;;6.80;13.20;;;6.84;52.25;102370.88;4998742;28;20242;-76
2022/03/25 06:49:18;;;;;;;48.88;29.95;;;6.90;12.90;;;7.08;52.25;102378.50;4986270;28;20200;-77
2022/03/25 06:51:47;;;;;;;44.60;28.63;;;6.90;13.20;;;7.29;51.73;102381.03;4980613;28;20715;-79
2022/03/25 06:54:17;;;;;;;54.60;31.50;;;7.10;12.90;;;7.56;51.07;102385.63;4981848;28;20195;-78
2022/03/25 06:56:47;;;;;;;47.28;27.45;;;7.30;11.90;;;7.66;50.59;102392.69;4984191;28;20192;-78
2022/03/25 06:59:18;;;;;;;47.10;28.17;;;7.50;11.10;;;7.76;50.23;102387.28;4985485;28;20644;-80
2022/03/25 07:01:48;;;;;;;54.22;31.23;;;7.70;10.00;;;7.59;50.15;102393.44;4987881;28;20184;-79
2022/03/25 07:04:21;;;;;;;51.03;30.50;;;7.70;9.20;;;7.74;50.02;102392.00;4987948;28;20186;-79
2022/03/25 07:06:57;;;;;;;45.65;33.55;;;7.80;9.10;;;7.79;49.73;102395.09;4988012;28;20540;-79
2022/03/25 07:09:27;;;;;;;58.20;42.53;;;7.80;8.70;;;7.75;50.10;102393.66;4968137;28;20245;-80
2022/03/25 07:11:57;;;;;;;55.15;39.78;;;7.80;9.00;;;8.12;49.73;102397.22;4981629;28;20562;-77
2022/03/25 07:14:26;;;;;;;68.85;42.60;;;7.90;8.70;;;8.50;48.54;102403.41;4991918;28;20199;-77
2022/03/25 07:16:56;;;;;;;45.33;30.52;;;8.20;7.80;;;8.54;48.30;102408.34;4986107;28;20696;-79
2022/03/25 07:19:26;;;;;;;107.53;95.13;;;8.40;7.30;;;8.70;48.41;102408.53;4987612;28;20221;-76
2022/03/25 07:21:55;;;;;;;41.13;28.30;;;8.50;6.80;;;8.70;48.12;102411.22;4988443;28;20207;-78
2022/03/25 07:24:24;;;;;;;46.67;30.77;;;8.60;6.10;;;8.96;47.82;102413.13;4992486;28;20179;-76
2022/03/25 07:26:53;;;;;;;48.38;33.00;;;8.80;6.10;;;9.18;47.23;102409.97;4991493;28;20211;-78
2022/03/25 07:29:22;;;;;;;43.25;29.83;;;9.00;5.70;;;9.42;46.83;102409.31;4986507;28;20307;-80
2022/03/25 07:31:50;;;;;;;50.75;31.13;;;9.20;5.40;;;9.71;46.05;102409.84;4982071;28;20254;-79
2022/03/25 07:34:19;;;;;;;56.58;32.47;;;9.40;4.30;;;9.85;45.91;102417.34;4982989;28;20195;-77
2022/03/25 07:36:50;;;;;;;53.20;31.30;;;9.60;4.10;;;9.65;45.64;102415.88;4989278;28;20199;-79
2022/03/25 07:39:19;;;;;;;49.60;31.40;;;9.60;2.50;;;9.81;45.71;102415.97;4985915;28;20213;-77
2022/03/25 07:41:48;;;;;;;48.78;31.60;;;9.60;3.00;;;10.00;45.14;102414.91;4980780;28;20217;-78
2022/03/25 07:44:17;;;;;;;57.05;33.97;;;9.80;2.40;;;10.00;45.33;102420.31;4991337;28;20248;-78
2022/03/25 07:46:46;;;;;;;50.38;33.42;;;9.90;2.20;;;10.20;45.29;102415.53;4989432;28;20267;-77
2022/03/25 07:49:15;;;;;;;52.03;35.17;;;10.00;1.50;;;10.42;44.81;102412.22;4985489;28;20214;-77
2022/03/25 07:51:44;;;;;;;49.65;32.63;;;10.20;1.20;;;10.54;44.62;102413.63;4984033;28;20191;-76
2022/03/25 07:54:14;;;;;;;64.38;37.35;;;10.30;1.00;;;10.45;44.79;102422.72;4979296;28;20282;-77
2022/03/25 07:56:45;;;;;;;61.03;32.75;;;10.40;1.00;;;10.80;44.07;102419.75;4959939;28;20494;-77
2022/03/25 07:59:15;;;;;;;48.60;31.35;;;10.60;1.00;;;10.95;44.04;102419.09;4959408;28;20199;-77
2022/03/25 08:01:44;;;;;;;48.67;35.03;;;10.70;1.00;;;11.26;43.43;102415.56;4976900;28;20282;-77
2022/03/25 08:04:14;;;;;;;53.83;33.50;;;10.90;1.00;;;11.39;43.02;102415.03;4976696;28;20237;-77
2022/03/25 08:06:43;;;;;;;44.67;30.13;;;11.10;1.00;;;11.43;43.28;102410.97;4977616;28;20208;-78
2022/03/25 08:09:14;;;;;;;48.47;30.73;;;11.10;1.00;;;11.75;42.37;102419.09;4978453;28;20211;-78
2022/03/25 08:11:45;;;;;;;45.17;30.37;;;11.40;1.00;;;11.92;42.23;102427.19;4960268;28;20203;-78
2022/03/25 08:14:15;;;;;;;44.40;30.00;;;11.60;1.00;;;12.07;42.08;102430.84;4980955;28;20415;-78
2022/03/25 08:16:45;;;;;;;44.73;28.57;;;11.80;1.00;;;11.99;41.60;102433.63;4981867;28;20434;-77
2022/03/25 08:19:15;;;;;;;44.38;29.58;;;11.80;1.00;;;11.70;42.44;102435.00;4979491;28;20459;-78
2022/03/25 08:21:44;;;;;;;36.87;28.70;;;11.80;1.00;;;12.04;42.19;102433.94;4976520;28;20218;-77
2022/03/25 08:29:47;;;;;;;44.27;28.80;;;12.00;1.00;;;12.18;41.61;102439.47;4990052;28;20211;-78
2022/03/25 08:32:17;;;;;;;45.20;29.13;;;12.10;1.00;;;12.40;41.23;102437.84;4974761;28;20435;-79
2022/03/25 08:34:50;;;;;;;41.67;29.77;;;12.10;1.00;;;12.50;41.39;102438.47;4972595;28;20799;-78
2022/03/25 08:37:29;;;;;;;44.67;30.47;;;12.30;1.00;;;12.46;41.44;102445.28;4973468;28;20454;-78
2022/03/25 08:40:03;;;;;;;42.03;30.63;;;12.30;1.00;;;12.72;41.10;102439.56;4965011;28;20470;-79
2022/03/25 08:42:32;;;;;;;42.83;29.43;;;12.40;1.00;;;12.92;40.33;102440.81;4977031;28;20470;-77
2022/03/25 08:45:02;;;;;;;53.53;30.60;;;12.70;1.00;;;13.12;40.25;102437.63;4991789;28;20429;-81
2022/03/25 08:47:31;;;;;;;47.37;31.53;;;12.90;1.00;;;13.13;40.31;102444.72;4993281;28;20450;-79
2022/03/25 08:50:01;;;;;;;48.10;32.73;;;13.00;1.00;;;13.19;40.47;102441.31;4987156;28;20475;-80
2022/03/25 08:52:30;;;;;;;45.00;30.97;;;13.00;1.00;;;13.28;40.49;102437.47;4968110;28;20431;-82
2022/03/25 08:54:59;;;;;;;53.30;33.00;;;13.10;1.00;;;13.51;40.37;102445.63;4984946;28;20450;-80
2022/03/25 08:57:29;;;;;;;50.10;31.20;;;13.30;1.00;;;13.39;40.33;102446.06;4985915;28;20518;-80
2022/03/25 08:59:58;;;;;;;46.60;30.73;;;13.20;1.00;;;13.61;40.31;102444.31;4988878;28;20447;-82
2022/03/25 09:02:27;;;;;;;47.70;32.47;;;13.40;1.00;;;13.27;40.77;102447.50;4972642;28;20555;-81
2022/03/25 09:04:56;;;;;;;44.90;31.70;;;13.40;1.00;;;13.36;40.96;102449.13;4991703;28;20551;-80
2022/03/25 09:07:25;;;;;;;45.20;33.23;;;13.30;1.00;;;13.47;40.70;102451.41;4991818;28;20450;-79
2022/03/25 09:09:54;;;;;;;44.80;32.60;;;13.40;1.00;;;13.68;40.49;102455.31;4972522;28;20467;-80
2022/03/25 09:12:24;;;;;;;43.17;31.57;;;13.50;1.00;;;13.51;40.95;102453.78;4986100;28;20420;-79
2022/03/25 09:14:54;;;;;;;56.43;33.60;;;13.40;1.00;;;13.59;40.86;102456.44;4986138;28;20407;-80
2022/03/25 09:17:23;;;;;;;45.73;30.50;;;13.50;1.00;;;13.98;40.65;102445.31;4986335;28;20403;-80
2022/03/25 09:19:53;;;;;;;45.67;31.53;;;13.60;1.00;;;14.25;40.05;102455.53;4983714;28;20457;-80
2022/03/25 09:22:22;;;;;;;41.97;30.30;;;13.80;1.00;;;14.25;39.71;102448.22;4983073;28;20423;-80
2022/03/25 09:24:51;;;;;;;49.63;30.67;;;13.90;1.00;;;14.26;39.90;102439.03;4982546;28;20812;-81
2022/03/25 09:27:21;;;;;;;45.80;33.07;;;14.10;1.00;;;14.36;39.99;102444.22;4983849;28;20465;-80
2022/03/25 09:29:50;;;;;;;43.87;33.27;;;14.20;1.00;;;14.15;40.43;102439.50;4983950;28;20447;-81
2022/03/25 09:32:21;;;;;;;45.63;34.00;;;14.10;1.00;;;14.52;40.26;102440.44;4985026;28;20416;-80
2022/03/25 09:37:39;;;;;;;43.90;33.03;;;14.40;1.00;;;14.75;40.01;102443.84;4985594;28;20454;-80
2022/03/25 09:40:12;;;;;;;46.57;34.40;;;14.50;1.00;;;14.56;40.24;102437.13;4986059;28;20447;-80
2022/03/25 09:42:42;;;;;;;49.30;36.43;;;14.40;1.00;;;14.60;40.64;102440.31;4985854;28;20435;-79
2022/03/25 09:45:15;;;;;;;53.63;32.97;;;14.50;1.00;;;14.26;41.21;102444.47;4990625;28;20486;-80
2022/03/25 09:47:47;;;;;;;43.70;31.90;;;14.30;1.00;;;14.60;41.25;102443.03;4976664;28;20469;-80
2022/03/25 09:50:21;;;;;;;49.50;34.60;;;14.30;1.00;;;14.91;40.81;102442.78;4976051;28;20472;-80
2022/03/25 09:52:53;;;;;;;47.00;34.00;;;14.50;1.00;;;15.12;40.06;102449.06;4993098;28;20438;-79
2022/03/25 09:55:41;;;;;;;52.47;35.27;;;14.80;1.00;;;15.18;39.75;102434.66;4989974;28;20455;-82
2022/03/25 09:58:18;;;;;;;51.13;35.00;;;15.00;1.00;;;14.85;40.54;102438.94;4973630;28;20442;-81
2022/03/25 10:00:52;;;;;;;46.80;35.00;;;14.80;1.00;;;15.21;39.99;102439.72;4991073;28;20449;-81
2022/03/25 10:03:35;;;;;;;47.93;34.10;;;15.00;1.00;;;15.11;40.02;102439.19;4987573;28;20842;-81
2022/03/25 10:06:12;;;;;;;50.27;33.20;;;14.90;1.00;;;15.45;40.12;102440.34;4987000;28;20434;-82
2022/03/25 10:08:56;;;;;;;56.87;35.50;;;15.10;1.00;;;15.51;39.61;102425.94;4985431;28;20508;-81
2022/03/25 10:11:28;;;;;;;52.40;36.23;;;15.30;1.00;;;15.48;39.44;102429.06;4985069;28;20438;-81
2022/03/25 10:14:15;;;;;;;50.50;37.93;;;15.50;1.00;;;15.78;39.27;102436.00;4985124;28;20458;-79
2022/03/25 10:16:46;;;;;;;52.53;36.40;;;15.50;1.00;;;15.34;39.53;102430.84;4985730;28;20426;-82
2022/03/25 10:19:20;;;;;;;46.43;36.00;;;15.30;1.00;;;15.79;39.23;102428.66;4985380;28;20443;-82
2022/03/25 10:21:58;;;;;;;51.30;37.60;;;15.40;1.00;;;15.91;38.91;102424.34;4986597;28;20462;-81
2022/03/25 10:24:44;;;;;;;57.97;40.67;;;15.70;1.00;;;15.96;39.09;102428.19;4986296;28;20425;-80
2022/03/25 10:27:21;;;;;;;47.87;39.30;;;15.70;1.00;;;16.03;39.10;102423.59;4932448;29;21004;-67
2022/03/25 10:29:54;;;;;;;54.83;38.10;;;15.80;1.00;;;16.04;38.77;102425.28;4952757;29;20420;-67
2022/03/25 10:32:43;;;;;;;49.00;36.37;;;15.90;1.00;;;16.21;38.74;102427.69;4934685;29;20431;-68
2022/03/25 10:35:13;;;;;;;51.60;38.30;;;15.90;1.00;;;16.65;38.56;102430.00;4934533;29;20933;-68